WINNIPESAUKEE R @ TILTON: From 11/05/2018 11:00 to 11/19/2018 19:00

Date STAGE [FT] FLOW [CFS] AIR TEMPERATURE [DEGF]
11/19/2018 14:00 5.30 1710.0 33.7
11/19/2018 13:00 5.40 1780.0 33.0
11/19/2018 12:00 5.43 1800.0 32.7
11/19/2018 11:00 5.33 1730.0 32.0
11/19/2018 10:00 5.60 1920.0 31.1
11/19/2018 09:00 5.29 1700.0 30.7
11/19/2018 08:00 5.27 1690.0 30.4
11/19/2018 07:00 5.32 1720.0 30.3
11/19/2018 06:00 5.31 1710.0 30.3
11/19/2018 05:00 5.38 1760.0 30.4
11/19/2018 04:00 5.29 1700.0 30.3
11/19/2018 03:00 5.50 1850.0 30.0
11/19/2018 02:00 5.30 1710.0 30.1
11/19/2018 01:00 5.24 1670.0 30.4
11/19/2018 00:00 5.30 1710.0 30.7
11/18/2018 23:00 5.35 1740.0 30.8
11/18/2018 22:00 5.30 1710.0 30.9
11/18/2018 21:00 5.23 1660.0 31.7
11/18/2018 20:00 5.33 1730.0 32.1
11/18/2018 19:00 5.32 1720.0 32.7
11/18/2018 18:00 5.34 1740.0 33.1
11/18/2018 17:00 5.26 1680.0 33.9
11/18/2018 16:00 5.36 1750.0 34.2
11/18/2018 15:00 5.28 1690.0 34.3
11/18/2018 14:00 5.39 1770.0 33.4
11/18/2018 13:00 5.29 1700.0 33.1
11/18/2018 12:00 5.33 1730.0 31.6
11/18/2018 11:00 5.30 1710.0 32.8
11/18/2018 10:00 5.42 1790.0 29.2
11/18/2018 09:00 5.26 1680.0 27.7
11/18/2018 08:00 5.36 1750.0 27.3
11/18/2018 07:00 5.34 1740.0 28.1
11/18/2018 06:00 5.29 1700.0 28.9
11/18/2018 05:00 5.26 1680.0 30.2
11/18/2018 04:00 5.37 1760.0 32.6
11/18/2018 03:00 5.37 1760.0 34.2
11/18/2018 02:00 5.26 1680.0 35.1
11/18/2018 01:00 5.29 1700.0 35.3
11/18/2018 00:00 5.26 1680.0 33.8
11/17/2018 23:00 5.37 1760.0 35.7
11/17/2018 22:00 5.37 1760.0 38.0
11/17/2018 21:00 5.26 1680.0 38.5
11/17/2018 20:00 5.34 1740.0 38.9
11/17/2018 19:00 5.30 1710.0 39.5
11/17/2018 18:00 5.35 1740.0 39.4
11/17/2018 17:00 5.35 1740.0 41.3
11/17/2018 16:00 5.38 1760.0 42.4
11/17/2018 15:00 5.39 1770.0 42.8
11/17/2018 14:00 5.32 1720.0 43.0
11/17/2018 13:00 5.32 1720.0 42.8
11/17/2018 12:00 5.31 1710.0 43.8
11/17/2018 11:00 5.40 1780.0 45.6
11/17/2018 10:00 5.35 1740.0 44.7
11/17/2018 09:00 5.40 1780.0 35.3
11/17/2018 08:00 5.39 1770.0 34.5
11/17/2018 07:00 5.33 1730.0 34.5
11/17/2018 06:00 5.38 1760.0 34.7
11/17/2018 05:00 5.39 1770.0 31.5
11/17/2018 04:00 5.42 1790.0 28.2
11/17/2018 03:00 5.44 1810.0 28.8
11/17/2018 02:00 5.34 1740.0 27.6
11/17/2018 01:00 5.38 1760.0 26.0
11/17/2018 00:00 5.39 1770.0 26.7
11/16/2018 23:00 5.42 1790.0 27.5
11/16/2018 22:00 5.44 1810.0 28.7
11/16/2018 21:00 5.34 1740.0 30.2
11/16/2018 20:00 5.39 1770.0 30.7
11/16/2018 19:00 5.42 1790.0 31.7
11/16/2018 18:00 5.38 1760.0 31.6
11/16/2018 17:00 5.39 1770.0 31.8
11/16/2018 16:00 5.33 1730.0 32.7
11/16/2018 15:00 5.33 1730.0 33.4
11/16/2018 14:00 5.39 1770.0 31.9
11/16/2018 13:00 5.39 1770.0 31.7
11/16/2018 12:00 5.39 1770.0 29.6
11/16/2018 11:00 5.42 1790.0 28.5
11/16/2018 10:00 5.48 1830.0 27.5
11/16/2018 09:00 5.41 1780.0 26.6
11/16/2018 08:00 5.41 1780.0 26.0
11/16/2018 07:00 5.52 1860.0 25.6
11/16/2018 06:00 5.54 1880.0 25.4
11/16/2018 05:00 5.52 1860.0 25.3
11/16/2018 04:00 5.56 1890.0 25.0
11/16/2018 03:00 5.56 1890.0 24.8
11/16/2018 02:00 5.49 1840.0 25.0
11/16/2018 01:00 5.54 1880.0 24.8
11/16/2018 00:00 5.52 1860.0 24.0
11/15/2018 23:00 5.56 1890.0 26.7
11/15/2018 22:00 5.56 1890.0 27.0
11/15/2018 21:00 5.49 1840.0 27.2
11/15/2018 20:00 5.43 1800.0 27.4
11/15/2018 19:00 5.39 1770.0 27.7
11/15/2018 18:00 5.45 1810.0 28.0
11/15/2018 17:00 5.51 1850.0 28.1
11/15/2018 16:00 5.41 1780.0 28.4
11/15/2018 15:00 5.39 1770.0 28.6
11/15/2018 14:00 5.45 1810.0 27.4
11/15/2018 13:00 5.42 1790.0 25.7
11/15/2018 12:00 5.41 1780.0 24.5
11/15/2018 11:00 5.41 1780.0 23.4
11/15/2018 10:00 5.41 1780.0 19.8
11/15/2018 09:00 5.45 1810.0 18.0
11/15/2018 08:00 5.46 1820.0 16.7
11/15/2018 07:00 5.46 1820.0 16.9
11/15/2018 06:00 5.48 1830.0 16.6
11/15/2018 05:00 5.49 1840.0 16.0
11/15/2018 04:00 5.49 1840.0 16.3
11/15/2018 03:00 5.49 1840.0 16.7
11/15/2018 02:00 5.51 1850.0 16.2
11/15/2018 01:00 5.48 1830.0 16.6
11/15/2018 00:00 5.49 1840.0 16.9
11/14/2018 23:00 5.49 1840.0 17.7
11/14/2018 22:00 5.49 1840.0 18.1
11/14/2018 21:00 5.51 1850.0 18.6
11/14/2018 20:00 5.51 1850.0 19.3
11/14/2018 19:00 5.58 1900.0 20.0
11/14/2018 18:00 5.55 1880.0 21.3
11/14/2018 17:00 5.59 1910.0 23.6
11/14/2018 16:00 5.62 1930.0 26.5
11/14/2018 15:00 5.66 1960.0 28.3
11/14/2018 14:00 5.72 2010.0 28.6
11/14/2018 13:00 5.70 1990.0 28.1
11/14/2018 12:00 5.71 2000.0 27.8
11/14/2018 11:00 5.62 1930.0 25.1
11/14/2018 10:00 5.73 2010.0 24.3
11/14/2018 09:00 5.62 1930.0 23.2
11/14/2018 08:00 5.63 1940.0 22.8
11/14/2018 07:00 5.61 1930.0 23.8
11/14/2018 06:00 5.67 1970.0 23.9
11/14/2018 05:00 5.57 1900.0 25.3
11/14/2018 04:00 5.59 1910.0 26.1
11/14/2018 03:00 5.55 1880.0 27.3
11/14/2018 02:00 5.57 1900.0 28.9
11/14/2018 01:00 5.67 1970.0 30.4
11/14/2018 00:00 5.57 1900.0 33.4
11/13/2018 23:00 5.59 1910.0 35.7
11/13/2018 22:00 5.55 1880.0 37.2
11/13/2018 21:00 5.57 1900.0 36.7
11/13/2018 20:00 5.45 1810.0 37.0
11/13/2018 19:00 5.37 1760.0 37.3
11/13/2018 18:00 5.44 1810.0 37.7
11/13/2018 17:00 5.34 1740.0 38.4
11/13/2018 16:00 5.31 1710.0 38.6
11/13/2018 15:00 5.36 1750.0 37.9
11/13/2018 14:00 5.34 1740.0 37.6
11/13/2018 13:00 5.22 1650.0 36.9
11/13/2018 12:00 5.19 1630.0 36.5
11/13/2018 11:00 5.11 1580.0 35.6
11/13/2018 10:00 5.05 1540.0 35.5
11/13/2018 09:00 5.02 1520.0 35.1
11/13/2018 08:00 4.98 1490.0 34.4
11/13/2018 07:00 4.96 1480.0 34.0
11/13/2018 06:00 4.94 1470.0 33.2
11/13/2018 05:00 4.88 1430.0 33.2
11/13/2018 04:00 4.88 1430.0 33.7
11/13/2018 03:00 4.88 1430.0 34.1
11/13/2018 02:00 4.89 1440.0 33.9
11/13/2018 01:00 4.94 1470.0 34.2
11/13/2018 00:00 4.88 1430.0 33.8
11/12/2018 23:00 4.88 1430.0 33.3
11/12/2018 22:00 4.88 1430.0 32.9
11/12/2018 21:00 4.89 1440.0 32.5
11/12/2018 20:00 4.90 1440.0 32.3
11/12/2018 19:00 4.99 1500.0 33.6
11/12/2018 18:00 5.00 1510.0 36.1
11/12/2018 17:00 4.99 1500.0 42.1
11/12/2018 16:00 5.00 1510.0 45.0
11/12/2018 15:00 4.99 1500.0 45.7
11/12/2018 14:00 4.96 1480.0 44.7
11/12/2018 13:00 4.94 1470.0 44.3
11/12/2018 12:00 4.95 1470.0 41.0
11/12/2018 11:00 4.92 1450.0 38.7
11/12/2018 10:00 4.91 1450.0 37.5
11/12/2018 09:00 4.91 1450.0 31.0
11/12/2018 08:00 4.92 1450.0 23.9
11/12/2018 07:00 4.94 1470.0 22.8
11/12/2018 06:00 4.95 1470.0 22.0
11/12/2018 05:00 4.95 1470.0 22.7
11/12/2018 04:00 4.96 1480.0 23.0
11/12/2018 03:00 4.98 1490.0 24.0
11/12/2018 02:00 4.99 1500.0 24.5
11/12/2018 01:00 4.95 1470.0 25.8
11/12/2018 00:00 4.95 1470.0 27.1
11/11/2018 23:00 4.96 1480.0 30.2
11/11/2018 22:00 4.98 1490.0 29.3
11/11/2018 21:00 4.99 1500.0 30.1
11/11/2018 20:00 5.00 1510.0 29.5
11/11/2018 19:00 5.10 1570.0 31.5
11/11/2018 18:00 5.09 1570.0 33.8
11/11/2018 17:00 5.09 1570.0 36.2
11/11/2018 16:00 5.07 1550.0 37.2
11/11/2018 15:00 5.06 1550.0 39.4
11/11/2018 14:00 5.05 1540.0 37.7
11/11/2018 13:00 5.04 1530.0 38.2
11/11/2018 12:00 5.02 1520.0 36.4
11/11/2018 11:00 5.00 1510.0 35.5
11/11/2018 10:00 4.99 1500.0 35.5
11/11/2018 09:00 5.00 1510.0 33.8
11/11/2018 08:00 5.01 1510.0 28.9
11/11/2018 07:00 5.02 1520.0 29.3
11/11/2018 06:00 5.02 1520.0 29.8
11/11/2018 05:00 5.02 1520.0 30.4
11/11/2018 04:00 5.05 1540.0 31.3
11/11/2018 03:00 5.05 1540.0 32.2
11/11/2018 02:00 5.06 1550.0 33.2
11/11/2018 01:00 5.02 1520.0 33.6
11/11/2018 00:00 5.02 1520.0 33.3
11/10/2018 23:00 5.05 1540.0 33.5
11/10/2018 22:00 5.05 1540.0 34.2
11/10/2018 21:00 5.06 1550.0 34.1
11/10/2018 20:00 5.07 1550.0 34.0
11/10/2018 19:00 5.17 1620.0 34.8
11/10/2018 18:00 5.16 1610.0 35.6
11/10/2018 17:00 5.15 1610.0 37.7
11/10/2018 16:00 5.14 1600.0 38.9
11/10/2018 15:00 5.13 1590.0 40.2
11/10/2018 14:00 5.12 1590.0 39.5
11/10/2018 13:00 5.12 1590.0 41.1
11/10/2018 12:00 5.12 1590.0 40.7
11/10/2018 11:00 5.15 1610.0 39.9
11/10/2018 10:00 5.13 1590.0 38.6
11/10/2018 09:00 5.13 1590.0 38.0
11/10/2018 08:00 5.13 1590.0 37.0
11/10/2018 07:00 5.12 1590.0 36.5
11/10/2018 06:00 5.12 1590.0 36.3
11/10/2018 05:00 5.12 1590.0 36.5
11/10/2018 04:00 5.11 1580.0 36.6
11/10/2018 03:00 5.10 1570.0 37.0
11/10/2018 02:00 5.08 1560.0 37.8
11/10/2018 01:00 5.12 1590.0 39.1
11/10/2018 00:00 5.12 1590.0 38.4
11/09/2018 23:00 5.11 1580.0 38.0
11/09/2018 22:00 5.10 1570.0 38.6
11/09/2018 21:00 5.08 1560.0 39.3
11/09/2018 20:00 5.06 1550.0 40.7
11/09/2018 19:00 4.91 1450.0 41.6
11/09/2018 18:00 4.91 1450.0 42.3
11/09/2018 17:00 4.90 1440.0 42.7
11/09/2018 16:00 4.88 1430.0 43.2
11/09/2018 15:00 4.87 1420.0 43.8
11/09/2018 14:00 4.85 1410.0 44.1
11/09/2018 13:00 4.83 1400.0 43.4
11/09/2018 12:00 4.81 1380.0 41.9
11/09/2018 11:00 4.88 1430.0 41.0
11/09/2018 10:00 4.87 1420.0 41.4
11/09/2018 09:00 4.85 1410.0 41.7
11/09/2018 08:00 4.83 1400.0 42.1
11/09/2018 07:00 4.81 1380.0 42.4
11/09/2018 06:00 -- -- 42.8
11/09/2018 05:00 -- -- 43.1
11/09/2018 04:00 -- -- 43.5
11/09/2018 03:00 -- -- 43.8
11/09/2018 02:00 -- -- 44.2
11/09/2018 01:00 -- -- 44.6
11/09/2018 00:00 -- -- 44.9
11/08/2018 23:00 -- -- 45.3
11/08/2018 22:00 -- -- 45.6
11/08/2018 21:00 -- -- 46.0
11/08/2018 20:00 -- -- 46.3
11/08/2018 19:00 -- -- 46.7
11/08/2018 18:00 -- -- 47.0
11/08/2018 17:00 -- -- 47.4
11/08/2018 16:00 4.59 1250.0 48.4
11/08/2018 15:00 4.63 1270.0 49.7
11/08/2018 14:00 4.66 1290.0 50.3
11/08/2018 13:00 4.64 1280.0 52.6
11/08/2018 12:00 4.60 1250.0 51.5
11/08/2018 11:00 4.59 1250.0 51.0
11/08/2018 10:00 4.58 1240.0 50.5
11/08/2018 09:00 4.56 1230.0 45.0
11/08/2018 08:00 4.54 1220.0 35.7
11/08/2018 07:00 4.52 1200.0 37.7
11/08/2018 06:00 4.51 1200.0 36.4
11/08/2018 05:00 4.51 1200.0 35.2
11/08/2018 04:00 4.53 1210.0 36.3
11/08/2018 03:00 4.55 1220.0 38.9
11/08/2018 02:00 4.55 1220.0 44.3
11/08/2018 01:00 4.51 1200.0 41.8
11/08/2018 00:00 4.51 1200.0 36.0
11/07/2018 23:00 4.53 1210.0 36.9
11/07/2018 22:00 4.55 1220.0 37.9
11/07/2018 21:00 4.55 1220.0 40.5
11/07/2018 20:00 4.62 1270.0 42.2
11/07/2018 19:00 4.62 1270.0 45.7
11/07/2018 18:00 4.59 1250.0 50.8
11/07/2018 17:00 4.56 1230.0 54.3
11/07/2018 16:00 4.52 1200.0 56.3
11/07/2018 15:00 4.49 1190.0 58.4
11/07/2018 14:00 4.44 1160.0 57.9
11/07/2018 13:00 4.38 1120.0 56.6
11/07/2018 12:00 4.32 1090.0 57.9
11/07/2018 11:00 4.26 1050.0 56.5
11/07/2018 10:00 4.25 1050.0 57.2
11/07/2018 09:00 4.25 1050.0 51.5
11/07/2018 08:00 4.23 1030.0 42.4
11/07/2018 07:00 4.23 1030.0 42.2
11/07/2018 06:00 4.21 1020.0 42.4
11/07/2018 05:00 4.20 1020.0 44.7
11/07/2018 04:00 4.19 1010.0 43.0
11/07/2018 03:00 4.18 1010.0 40.3
11/07/2018 02:00 4.17 1000.0 41.7
11/07/2018 01:00 4.21 1020.0 44.4
11/07/2018 00:00 4.20 1020.0 45.7
11/06/2018 23:00 4.19 1010.0 46.9
11/06/2018 22:00 4.18 1010.0 46.8
11/06/2018 21:00 4.17 1000.0 46.8
11/06/2018 20:00 4.16 994.0 46.9
11/06/2018 19:00 4.02 917.0 47.3
11/06/2018 18:00 3.98 895.0 47.4
11/06/2018 17:00 3.96 884.0 47.6
11/06/2018 16:00 3.90 852.0 47.6
11/06/2018 15:00 3.80 800.0 47.5
11/06/2018 14:00 3.72 759.0 47.5
11/06/2018 13:00 3.67 734.0 47.3
11/06/2018 12:00 3.62 709.0 47.2
11/06/2018 11:00 3.57 684.0 45.6
11/06/2018 10:00 3.56 679.0 45.0
11/06/2018 09:00 3.56 679.0 44.0
11/06/2018 08:00 3.55 674.0 42.9
11/06/2018 07:00 3.55 674.0 42.4
11/06/2018 06:00 3.55 674.0 42.1
11/06/2018 05:00 3.56 679.0 41.4
11/06/2018 04:00 3.55 674.0 41.0
11/06/2018 03:00 3.55 674.0 40.3
11/06/2018 02:00 3.54 669.0 39.7
11/06/2018 01:00 3.55 674.0 39.3
11/06/2018 00:00 3.56 679.0 38.8
11/05/2018 23:00 3.55 674.0 38.7
11/05/2018 22:00 3.55 674.0 39.0
11/05/2018 21:00 3.54 669.0 39.4
11/05/2018 20:00 3.53 664.0 39.2
11/05/2018 19:00 3.48 640.0 39.3
11/05/2018 18:00 3.48 640.0 39.4
11/05/2018 17:00 3.48 640.0 39.8
11/05/2018 16:00 3.46 631.0 39.4
11/05/2018 15:00 -- -- --
11/05/2018 14:00 -- -- --
11/05/2018 13:00 -- -- --
11/05/2018 12:00 -- -- --
11/05/2018 11:00 -- -- --